Port Royal, VA (22535)

7:51 AM EDT on May 25, 2015 (GMT -0400)
Dogue | | Change Station
CLOSE
Current Station
Personal Weather Station
Location: King George, VA
Elevation: 110 ft
Nearby Weather Stations

Elev 110 ft 38.21 °N, 77.17 °W | Updated 3 seconds ago

Clear
Clear
67.6 °F
Feels Like 67.6 °F
N
2.0
Wind Variable Wind from SSW

Today
High -- | Low -- °F
--% Chance of Precip.
Yesterday
High -- | Low -- °F
Precip. -- in
5:50 AM 8:20 PM
Waxing Crescent, 48% visible
Pressure 30.29 in
Visibility 10.0 miles
Clouds Clear
Dew Point 61 °F
Humidity 79%
Rainfall 0.00 in
Snow Depth Not available.
UV 1 out of 12
Pollen 8.60 out of 12
Air Quality Not available.
Flu Activity No Activity
METAR KEZF 251135Z AUTO 21010KT 10SM CLR 20/15 A3029 RMK AO2 T02000151

More Conditions Fewer Conditions

Pressure 30.29 in
Visibility 10.0 miles
Clouds Clear
Dew Point 61 °F
Humidity 79%
Rainfall 0.00 in
Snow Depth Not available.
UV 1 out of 12
Pollen 8.60 out of 12
Air Quality Not available.
Flu Activity No Activity
METAR KEZF 251135Z AUTO 21010KT 10SM CLR 20/15 A3029 RMK AO2 T02000151

More Conditions Fewer Conditions

10-Day Weather Forecast

Almanac

Astronomy

May. 25, 2015 Rise Set
Actual Time
Civil Twilight
Nautical Twilight
Astronomical Twilight
Moon
Length of Visible Light
Length of Day
Tomorrow will be .
, % of the Moon is Illuminated

Today's Extremes

State Highs State Lows

Community

WunderPhotos

Upload Photos

1,823,981 photos uploaded!

WunderBlogs® & News

Nearby

Air Quality

  Air Quality AQ Index Pollutant
Not available.

Snow Depth

Station Depth Elevation

Earthquake Activity

City Distance Mag. Time & Date
Minimum magnitude displayed is 2.5.

Coastal Water Temperatures

Place Temperature

Stations

Nearby Weather Stations

Station Location Temp. Windchill Dew Point Humidity Wind Precip. Elev Updated Type